BCN weather

Barcelona International Airport
Barcelona, Catalonia, Spain

Public forecast

Using degrees Celsius for public forecast. Weather courtesy of forecast.io.

Current aviation weather report (METAR) for Barcelona International Airport

Retrieved 2020/01/23 10:30 UTC (3 minutes ago):

LEBL 231030Z VRB02KT 9999 FEW011 SCT030 13/10 Q1021 NOSIG

Aviation forecast (TAF) for Barcelona International Airport

Retrieved 2020/01/23 06:27 UTC (4 hours ago):

TAF LEBL 230500Z 2306/2406 VRB04KT 9999 SCT020 TX16/2313Z TN09/2306Z TEMPO 2306/2309 10020G30KT 4000 SHRA BKN010 SCT020TCU PROB40 TEMPO 2306/2308 3000 TSRA BKN010 SCT020CB TEMPO 2313/2315 18007KT BECMG 2319/2321 33008KT